CheckWX is a tool to help pilots better visualize weather data.  It is not intended as a substitute for an official pre-flight weather briefing.

05:20:43 UTC

FYRN METAR
Rhino Camp Airport
Rhino Camp, Namibia
Current

1 hour ago

FYRN 200400Z 09004KT CAVOK 20/11 Q1017
Observed
Feb-20 @ 04:00 UTC
Wind
  • 090° at 4 KTS
Visibility
10,000+ meters
Flight Rules
VFR
Cloud Levels
  • Clear skies
Temperature
20°C / 68°F
Dewpoint
11°C / 52°F
Humidity
56%
Altimeter
30.03" Hg
Pressure
1016.92 hPa
Previous

2 hours ago

FYRN 200300Z 09003KT CAVOK 20/12 Q1016
Observed
Feb-20 @ 03:00 UTC
Wind
  • 090° at 3 KTS
Visibility
10,000+ meters
Flight Rules
VFR
Cloud Levels
  • Clear skies
Temperature
20°C / 68°F
Dewpoint
12°C / 54°F
Humidity
60%
Altimeter
30" Hg
Pressure
1015.92 hPa
Previous

3 hours ago

FYRN 200200Z 12004KT CAVOK 21/11 Q1016
Observed
Feb-20 @ 02:00 UTC
Wind
  • 120° at 4 KTS
Visibility
10,000+ meters
Flight Rules
VFR
Cloud Levels
  • Clear skies
Temperature
21°C / 70°F
Dewpoint
11°C / 52°F
Humidity
53%
Altimeter
30" Hg
Pressure
1015.92 hPa